sensor_id;sensor_type;location;lat;lon;timestamp;temperature;humidity
40816;DHT22;26535;48.788;9.214;2023-04-04T00:00:10;1.20;91.40
40816;DHT22;26535;48.788;9.214;2023-04-04T05:01:31;-0.90;99.90
40816;DHT22;26535;48.788;9.214;2023-04-04T05:03:58;-0.90;99.60
40816;DHT22;26535;48.788;9.214;2023-04-04T05:06:34;-0.90;99.90
40816;DHT22;26535;48.788;9.214;2023-04-04T05:08:59;-0.90;99.90
40816;DHT22;26535;48.788;9.214;2023-04-04T05:11:30;-0.90;99.90
40816;DHT22;26535;48.788;9.214;2023-04-04T05:13:56;-0.90;99.90
40816;DHT22;26535;48.788;9.214;2023-04-04T05:16:25;-0.90;99.90
40816;DHT22;26535;48.788;9.214;2023-04-04T05:18:54;-0.80;99.90
40816;DHT22;26535;48.788;9.214;2023-04-04T05:21:20;-0.70;99.90
40816;DHT22;26535;48.788;9.214;2023-04-04T05:23:48;-0.60;99.90
40816;DHT22;26535;48.788;9.214;2023-04-04T05:26:15;-0.50;99.90
40816;DHT22;26535;48.788;9.214;2023-04-04T05:28:41;-0.50;99.50
40816;DHT22;26535;48.788;9.214;2023-04-04T05:31:07;-0.60;99.50
40816;DHT22;26535;48.788;9.214;2023-04-04T05:33:34;-0.60;99.40
40816;DHT22;26535;48.788;9.214;2023-04-04T05:36:09;-0.50;99.20
40816;DHT22;26535;48.788;9.214;2023-04-04T05:38:42;-0.60;98.90
40816;DHT22;26535;48.788;9.214;2023-04-04T05:41:09;-0.50;99.40
40816;DHT22;26535;48.788;9.214;2023-04-04T05:43:36;-0.50;99.20
40816;DHT22;26535;48.788;9.214;2023-04-04T05:46:07;-0.50;99.10
40816;DHT22;26535;48.788;9.214;2023-04-04T05:48:39;-0.50;99.10
40816;DHT22;26535;48.788;9.214;2023-04-04T05:51:05;-0.50;98.90
40816;DHT22;26535;48.788;9.214;2023-04-04T05:53:41;-0.40;98.90
40816;DHT22;26535;48.788;9.214;2023-04-04T05:56:14;-0.40;98.80
40816;DHT22;26535;48.788;9.214;2023-04-04T05:58:39;-0.40;98.70
40816;DHT22;26535;48.788;9.214;2023-04-04T06:01:09;-0.30;98.40
40816;DHT22;26535;48.788;9.214;2023-04-04T06:03:36;-0.20;98.40
40816;DHT22;26535;48.788;9.214;2023-04-04T06:06:03;-0.20;98.10
40816;DHT22;26535;48.788;9.214;2023-04-04T06:08:33;-0.20;97.90
40816;DHT22;26535;48.788;9.214;2023-04-04T06:10:58;-0.10;97.80
40816;DHT22;26535;48.788;9.214;2023-04-04T06:13:24;0.00;97.60
40816;DHT22;26535;48.788;9.214;2023-04-04T06:15:54;0.10;97.20
40816;DHT22;26535;48.788;9.214;2023-04-04T06:18:20;0.20;96.90
40816;DHT22;26535;48.788;9.214;2023-04-04T06:20:47;0.30;96.60
40816;DHT22;26535;48.788;9.214;2023-04-04T06:23:14;0.50;95.70
40816;DHT22;26535;48.788;9.214;2023-04-04T06:25:44;0.60;95.60
40816;DHT22;26535;48.788;9.214;2023-04-04T06:28:10;0.70;94.40
40816;DHT22;26535;48.788;9.214;2023-04-04T06:30:38;0.80;94.10
40816;DHT22;26535;48.788;9.214;2023-04-04T06:33:05;1.00;94.00
40816;DHT22;26535;48.788;9.214;2023-04-04T06:35:33;1.10;93.80
40816;DHT22;26535;48.788;9.214;2023-04-04T06:38:00;1.20;93.50
40816;DHT22;26535;48.788;9.214;2023-04-04T06:40:27;1.40;92.70
40816;DHT22;26535;48.788;9.214;2023-04-04T06:42:53;1.50;92.30
40816;DHT22;26535;48.788;9.214;2023-04-04T06:45:25;1.60;92.00
40816;DHT22;26535;48.788;9.214;2023-04-04T06:47:52;1.80;91.80
40816;DHT22;26535;48.788;9.214;2023-04-04T06:50:19;1.90;91.60
40816;DHT22;26535;48.788;9.214;2023-04-04T06:52:50;1.90;91.10
40816;DHT22;26535;48.788;9.214;2023-04-04T06:55:17;2.10;90.70
40816;DHT22;26535;48.788;9.214;2023-04-04T06:57:43;2.20;90.60
40816;DHT22;26535;48.788;9.214;2023-04-04T07:00:09;2.20;89.60
40816;DHT22;26535;48.788;9.214;2023-04-04T07:02:36;2.40;89.40
40816;DHT22;26535;48.788;9.214;2023-04-04T07:05:02;2.40;89.00
40816;DHT22;26535;48.788;9.214;2023-04-04T07:07:31;2.50;88.90
40816;DHT22;26535;48.788;9.214;2023-04-04T07:09:57;2.50;88.10
40816;DHT22;26535;48.788;9.214;2023-04-04T07:12:23;2.70;87.00
40816;DHT22;26535;48.788;9.214;2023-04-04T07:14:54;2.70;87.40
40816;DHT22;26535;48.788;9.214;2023-04-04T07:17:29;2.70;86.90
40816;DHT22;26535;48.788;9.214;2023-04-04T07:19:55;2.80;87.70
40816;DHT22;26535;48.788;9.214;2023-04-04T07:22:20;2.90;86.00
40816;DHT22;26535;48.788;9.214;2023-04-04T07:24:46;2.90;86.00
40816;DHT22;26535;48.788;9.214;2023-04-04T07:27:12;3.10;85.40
40816;DHT22;26535;48.788;9.214;2023-04-04T07:29:40;3.10;85.90
40816;DHT22;26535;48.788;9.214;2023-04-04T07:32:06;3.20;84.80
40816;DHT22;26535;48.788;9.214;2023-04-04T07:34:31;3.30;85.90
40816;DHT22;26535;48.788;9.214;2023-04-04T07:36:57;3.40;84.30
40816;DHT22;26535;48.788;9.214;2023-04-04T07:39:26;3.50;84.80
40816;DHT22;26535;48.788;9.214;2023-04-04T07:41:52;3.70;83.80
40816;DHT22;26535;48.788;9.214;2023-04-04T07:44:18;3.70;83.10
40816;DHT22;26535;48.788;9.214;2023-04-04T07:46:43;3.70;82.80
40816;DHT22;26535;48.788;9.214;2023-04-04T07:49:09;3.90;83.10
40816;DHT22;26535;48.788;9.214;2023-04-04T07:51:41;4.00;83.20
40816;DHT22;26535;48.788;9.214;2023-04-04T07:57:29;4.00;81.00
40816;DHT22;26535;48.788;9.214;2023-04-04T08:00:13;4.10;80.80
40816;DHT22;26535;48.788;9.214;2023-04-04T08:02:43;4.20;80.50
40816;DHT22;26535;48.788;9.214;2023-04-04T08:05:10;4.30;79.80
40816;DHT22;26535;48.788;9.214;2023-04-04T08:07:35;4.40;79.80
40816;DHT22;26535;48.788;9.214;2023-04-04T08:10:08;4.40;79.00
40816;DHT22;26535;48.788;9.214;2023-04-04T08:12:41;4.40;78.50
40816;DHT22;26535;48.788;9.214;2023-04-04T08:15:10;4.40;79.40
40816;DHT22;26535;48.788;9.214;2023-04-04T08:17:39;4.50;81.10
40816;DHT22;26535;48.788;9.214;2023-04-04T08:20:18;4.60;78.50
40816;DHT22;26535;48.788;9.214;2023-04-04T08:22:44;4.50;79.30
40816;DHT22;26535;48.788;9.214;2023-04-04T08:25:13;4.70;81.60
40816;DHT22;26535;48.788;9.214;2023-04-04T08:27:39;4.80;80.00
40816;DHT22;26535;48.788;9.214;2023-04-04T08:30:06;4.90;78.80
40816;DHT22;26535;48.788;9.214;2023-04-04T08:32:33;4.90;79.50
40816;DHT22;26535;48.788;9.214;2023-04-04T08:34:59;5.10;78.80
40816;DHT22;26535;48.788;9.214;2023-04-04T08:37:24;5.10;78.30
40816;DHT22;26535;48.788;9.214;2023-04-04T08:39:53;5.20;77.50
40816;DHT22;26535;48.788;9.214;2023-04-04T08:42:24;5.10;77.60
40816;DHT22;26535;48.788;9.214;2023-04-04T08:45:26;5.20;78.00
40816;DHT22;26535;48.788;9.214;2023-04-04T08:48:22;5.40;77.60
40816;DHT22;26535;48.788;9.214;2023-04-04T08:50:56;5.50;76.70
40816;DHT22;26535;48.788;9.214;2023-04-04T08:54:00;5.40;76.90
40816;DHT22;26535;48.788;9.214;2023-04-04T08:56:24;5.40;78.50
40816;DHT22;26535;48.788;9.214;2023-04-04T08:58:56;5.70;76.40
40816;DHT22;26535;48.788;9.214;2023-04-04T09:01:36;5.80;76.50
40816;DHT22;26535;48.788;9.214;2023-04-04T09:04:10;5.80;74.50
40816;DHT22;26535;48.788;9.214;2023-04-04T09:06:38;5.90;75.00
40816;DHT22;26535;48.788;9.214;2023-04-04T09:09:05;6.10;74.50
40816;DHT22;26535;48.788;9.214;2023-04-04T09:11:37;6.20;74.40
40816;DHT22;26535;48.788;9.214;2023-04-04T09:14:03;6.30;74.00
40816;DHT22;26535;48.788;9.214;2023-04-04T09:16:30;6.50;73.30
40816;DHT22;26535;48.788;9.214;2023-04-04T09:18:59;6.60;72.80
40816;DHT22;26535;48.788;9.214;2023-04-04T09:21:24;6.70;71.90
40816;DHT22;26535;48.788;9.214;2023-04-04T09:24:07;6.90;71.80
40816;DHT22;26535;48.788;9.214;2023-04-04T09:26:51;6.80;71.30
40816;DHT22;26535;48.788;9.214;2023-04-04T09:29:18;6.90;71.20
40816;DHT22;26535;48.788;9.214;2023-04-04T09:31:45;7.00;70.70
40816;DHT22;26535;48.788;9.214;2023-04-04T09:34:17;7.00;70.30
40816;DHT22;26535;48.788;9.214;2023-04-04T09:36:45;6.90;68.90
40816;DHT22;26535;48.788;9.214;2023-04-04T09:39:28;6.80;68.50
40816;DHT22;26535;48.788;9.214;2023-04-04T09:41:54;6.90;68.50
40816;DHT22;26535;48.788;9.214;2023-04-04T09:44:31;6.80;69.10
40816;DHT22;26535;48.788;9.214;2023-04-04T09:47:26;6.70;71.70
40816;DHT22;26535;48.788;9.214;2023-04-04T09:50:23;6.80;68.80
40816;DHT22;26535;48.788;9.214;2023-04-04T09:53:06;6.90;69.60
40816;DHT22;26535;48.788;9.214;2023-04-04T09:55:40;6.90;68.80
40816;DHT22;26535;48.788;9.214;2023-04-04T09:58:28;7.00;68.60
40816;DHT22;26535;48.788;9.214;2023-04-04T10:01:12;7.10;69.00
40816;DHT22;26535;48.788;9.214;2023-04-04T10:03:55;7.10;69.00
40816;DHT22;26535;48.788;9.214;2023-04-04T10:06:34;7.20;68.70
40816;DHT22;26535;48.788;9.214;2023-04-04T10:09:21;7.00;68.50
40816;DHT22;26535;48.788;9.214;2023-04-04T10:11:47;7.10;69.20
40816;DHT22;26535;48.788;9.214;2023-04-04T10:14:13;7.10;68.90
40816;DHT22;26535;48.788;9.214;2023-04-04T10:16:53;7.10;69.40
40816;DHT22;26535;48.788;9.214;2023-04-04T10:19:29;7.10;69.60
40816;DHT22;26535;48.788;9.214;2023-04-04T10:21:54;7.10;69.20
40816;DHT22;26535;48.788;9.214;2023-04-04T10:24:21;7.30;69.90
40816;DHT22;26535;48.788;9.214;2023-04-04T10:26:47;7.30;69.00
40816;DHT22;26535;48.788;9.214;2023-04-04T10:29:16;7.30;68.90
40816;DHT22;26535;48.788;9.214;2023-04-04T10:31:42;7.30;68.80
40816;DHT22;26535;48.788;9.214;2023-04-04T10:34:35;7.30;69.20
40816;DHT22;26535;48.788;9.214;2023-04-04T10:37:27;7.40;68.70
40816;DHT22;26535;48.788;9.214;2023-04-04T10:40:12;7.60;68.00
40816;DHT22;26535;48.788;9.214;2023-04-04T10:42:57;7.70;66.80
40816;DHT22;26535;48.788;9.214;2023-04-04T10:45:34;7.60;67.60
40816;DHT22;26535;48.788;9.214;2023-04-04T10:51:10;7.80;71.60
40816;DHT22;26535;48.788;9.214;2023-04-04T10:53:41;8.10;68.00
40816;DHT22;26535;48.788;9.214;2023-04-04T10:56:34;8.20;66.50
40816;DHT22;26535;48.788;9.214;2023-04-04T10:59:21;8.30;65.60
40816;DHT22;26535;48.788;9.214;2023-04-04T11:07:09;8.90;67.20
40816;DHT22;26535;48.788;9.214;2023-04-04T11:10:12;9.10;65.60
40816;DHT22;26535;48.788;9.214;2023-04-04T11:12:54;9.50;64.90
40816;DHT22;26535;48.788;9.214;2023-04-04T11:16:10;9.90;63.70
40816;DHT22;26535;48.788;9.214;2023-04-04T11:21:18;10.70;60.80
40816;DHT22;26535;48.788;9.214;2023-04-04T11:24:11;11.60;61.30
40816;DHT22;26535;48.788;9.214;2023-04-04T11:26:44;12.90;59.10
40816;DHT22;26535;48.788;9.214;2023-04-04T11:29:19;13.50;57.10
40816;DHT22;26535;48.788;9.214;2023-04-04T11:31:50;14.20;55.40
40816;DHT22;26535;48.788;9.214;2023-04-04T11:34:31;14.50;57.00
40816;DHT22;26535;48.788;9.214;2023-04-04T11:37:14;15.00;53.80
40816;DHT22;26535;48.788;9.214;2023-04-04T11:39:50;15.80;55.10
40816;DHT22;26535;48.788;9.214;2023-04-04T11:42:22;16.50;53.40
40816;DHT22;26535;48.788;9.214;2023-04-04T11:48:00;17.10;51.60
40816;DHT22;26535;48.788;9.214;2023-04-04T11:50:33;17.50;51.20
40816;DHT22;26535;48.788;9.214;2023-04-04T11:53:10;17.00;49.20
40816;DHT22;26535;48.788;9.214;2023-04-04T11:56:24;16.90;50.00
40816;DHT22;26535;48.788;9.214;2023-04-04T11:58:50;17.60;52.50
40816;DHT22;26535;48.788;9.214;2023-04-04T12:01:20;18.20;48.80
40816;DHT22;26535;48.788;9.214;2023-04-04T12:03:47;17.60;49.60
40816;DHT22;26535;48.788;9.214;2023-04-04T12:06:17;18.30;48.40
40816;DHT22;26535;48.788;9.214;2023-04-04T12:08:47;18.70;46.80
40816;DHT22;26535;48.788;9.214;2023-04-04T12:11:17;19.40;47.60
40816;DHT22;26535;48.788;9.214;2023-04-04T12:13:51;19.20;46.60
40816;DHT22;26535;48.788;9.214;2023-04-04T12:16:23;19.30;46.10
40816;DHT22;26535;48.788;9.214;2023-04-04T12:18:49;18.80;45.60
40816;DHT22;26535;48.788;9.214;2023-04-04T12:21:21;19.20;46.40
40816;DHT22;26535;48.788;9.214;2023-04-04T12:23:51;19.80;46.00
40816;DHT22;26535;48.788;9.214;2023-04-04T12:26:42;19.10;46.10
40816;DHT22;26535;48.788;9.214;2023-04-04T12:29:12;18.80;46.60
40816;DHT22;26535;48.788;9.214;2023-04-04T12:31:45;19.50;47.70
40816;DHT22;26535;48.788;9.214;2023-04-04T12:34:32;20.10;45.90
40816;DHT22;26535;48.788;9.214;2023-04-04T12:37:21;19.70;45.70
40816;DHT22;26535;48.788;9.214;2023-04-04T12:39:47;19.80;46.50
40816;DHT22;26535;48.788;9.214;2023-04-04T12:42:21;19.40;45.30
40816;DHT22;26535;48.788;9.214;2023-04-04T12:44:52;18.90;45.80
40816;DHT22;26535;48.788;9.214;2023-04-04T12:47:18;19.30;44.90
40816;DHT22;26535;48.788;9.214;2023-04-04T12:49:47;20.20;45.30
40816;DHT22;26535;48.788;9.214;2023-04-04T12:54:47;22.90;54.70
40816;DHT22;26535;48.788;9.214;2023-04-04T12:57:17;22.80;50.50
40816;DHT22;26535;48.788;9.214;2023-04-04T12:59:47;22.20;50.70
40816;DHT22;26535;48.788;9.214;2023-04-04T13:02:17;22.50;50.00
40816;DHT22;26535;48.788;9.214;2023-04-04T13:04:45;22.20;49.60
40816;DHT22;26535;48.788;9.214;2023-04-04T13:07:30;20.70;50.70
40816;DHT22;26535;48.788;9.214;2023-04-04T13:10:04;19.70;52.10
40816;DHT22;26535;48.788;9.214;2023-04-04T13:15:17;19.80;53.40
40816;DHT22;26535;48.788;9.214;2023-04-04T13:17:48;21.50;52.10
40816;DHT22;26535;48.788;9.214;2023-04-04T13:20:15;22.40;50.30
40816;DHT22;26535;48.788;9.214;2023-04-04T13:22:41;22.80;49.60
40816;DHT22;26535;48.788;9.214;2023-04-04T13:25:09;23.30;48.70
40816;DHT22;26535;48.788;9.214;2023-04-04T13:27:35;23.80;48.90
40816;DHT22;26535;48.788;9.214;2023-04-04T13:30:02;24.10;47.80
40816;DHT22;26535;48.788;9.214;2023-04-04T13:32:28;24.60;47.10
40816;DHT22;26535;48.788;9.214;2023-04-04T13:34:54;24.80;46.20
40816;DHT22;26535;48.788;9.214;2023-04-04T13:37:20;25.20;45.90
40816;DHT22;26535;48.788;9.214;2023-04-04T13:39:45;25.60;45.60
40816;DHT22;26535;48.788;9.214;2023-04-04T13:42:12;26.10;45.30
40816;DHT22;26535;48.788;9.214;2023-04-04T13:44:38;25.70;44.70
40816;DHT22;26535;48.788;9.214;2023-04-04T13:47:04;25.60;44.60
40816;DHT22;26535;48.788;9.214;2023-04-04T13:49:29;25.10;44.70
40816;DHT22;26535;48.788;9.214;2023-04-04T13:51:55;23.40;45.20
40816;DHT22;26535;48.788;9.214;2023-04-04T13:54:21;23.30;45.50
40816;DHT22;26535;48.788;9.214;2023-04-04T13:56:46;23.80;46.40
40816;DHT22;26535;48.788;9.214;2023-04-04T13:59:12;23.20;44.30
40816;DHT22;26535;48.788;9.214;2023-04-04T14:01:39;24.00;44.60
40816;DHT22;26535;48.788;9.214;2023-04-04T14:04:05;24.70;45.10
40816;DHT22;26535;48.788;9.214;2023-04-04T14:06:31;25.90;44.20
40816;DHT22;26535;48.788;9.214;2023-04-04T14:08:57;25.90;43.80
40816;DHT22;26535;48.788;9.214;2023-04-04T14:11:23;24.30;43.90
40816;DHT22;26535;48.788;9.214;2023-04-04T14:13:50;23.20;45.10
40816;DHT22;26535;48.788;9.214;2023-04-04T14:16:19;23.70;45.00
40816;DHT22;26535;48.788;9.214;2023-04-04T14:18:46;24.10;46.10
40816;DHT22;26535;48.788;9.214;2023-04-04T14:21:13;25.00;44.10
40816;DHT22;26535;48.788;9.214;2023-04-04T14:23:39;25.60;43.50
40816;DHT22;26535;48.788;9.214;2023-04-04T14:26:04;25.80;45.30
40816;DHT22;26535;48.788;9.214;2023-04-04T14:28:30;26.50;42.60
40816;DHT22;26535;48.788;9.214;2023-04-04T14:30:57;26.40;42.70
40816;DHT22;26535;48.788;9.214;2023-04-04T14:33:22;26.20;42.40
40816;DHT22;26535;48.788;9.214;2023-04-04T14:35:48;26.20;41.90
40816;DHT22;26535;48.788;9.214;2023-04-04T14:38:15;25.20;42.40
40816;DHT22;26535;48.788;9.214;2023-04-04T14:40:41;26.10;43.50
40816;DHT22;26535;48.788;9.214;2023-04-04T14:43:07;25.30;42.70
40816;DHT22;26535;48.788;9.214;2023-04-04T14:45:33;25.60;42.00
40816;DHT22;26535;48.788;9.214;2023-04-04T14:47:59;25.30;42.40
40816;DHT22;26535;48.788;9.214;2023-04-04T14:50:25;25.00;42.70
40816;DHT22;26535;48.788;9.214;2023-04-04T14:52:50;25.10;43.50
40816;DHT22;26535;48.788;9.214;2023-04-04T14:55:20;25.50;42.60
40816;DHT22;26535;48.788;9.214;2023-04-04T14:57:48;25.30;41.80
40816;DHT22;26535;48.788;9.214;2023-04-04T15:00:14;24.70;42.00
40816;DHT22;26535;48.788;9.214;2023-04-04T15:02:47;24.60;42.20
40816;DHT22;26535;48.788;9.214;2023-04-04T15:05:17;26.10;41.50
40816;DHT22;26535;48.788;9.214;2023-04-04T15:07:44;25.90;41.40
40816;DHT22;26535;48.788;9.214;2023-04-04T15:10:11;26.00;41.20
40816;DHT22;26535;48.788;9.214;2023-04-04T15:12:36;25.30;41.90
40816;DHT22;26535;48.788;9.214;2023-04-04T15:15:03;25.30;42.20
40816;DHT22;26535;48.788;9.214;2023-04-04T15:17:28;25.30;42.60
40816;DHT22;26535;48.788;9.214;2023-04-04T15:19:54;26.30;42.10
40816;DHT22;26535;48.788;9.214;2023-04-04T15:22:20;26.20;42.40
40816;DHT22;26535;48.788;9.214;2023-04-04T15:24:46;25.90;42.60
40816;DHT22;26535;48.788;9.214;2023-04-04T15:27:12;24.70;43.70
40816;DHT22;26535;48.788;9.214;2023-04-04T15:29:38;23.00;44.40
40816;DHT22;26535;48.788;9.214;2023-04-04T15:32:03;21.30;45.00
40816;DHT22;26535;48.788;9.214;2023-04-04T15:34:29;19.40;47.60
40816;DHT22;26535;48.788;9.214;2023-04-04T15:36:55;19.20;47.70
40816;DHT22;26535;48.788;9.214;2023-04-04T15:39:23;20.70;47.30
40816;DHT22;26535;48.788;9.214;2023-04-04T15:41:52;22.30;45.50
40816;DHT22;26535;48.788;9.214;2023-04-04T15:44:17;23.00;44.30
40816;DHT22;26535;48.788;9.214;2023-04-04T15:46:43;23.50;44.20
40816;DHT22;26535;48.788;9.214;2023-04-04T15:49:09;23.50;44.00
40816;DHT22;26535;48.788;9.214;2023-04-04T15:51:35;24.10;43.80
40816;DHT22;26535;48.788;9.214;2023-04-04T15:54:03;24.40;43.30
40816;DHT22;26535;48.788;9.214;2023-04-04T15:56:29;24.10;42.90
40816;DHT22;26535;48.788;9.214;2023-04-04T15:58:55;23.30;43.60
40816;DHT22;26535;48.788;9.214;2023-04-04T16:01:21;22.60;43.90
40816;DHT22;26535;48.788;9.214;2023-04-04T16:03:47;22.80;45.10
40816;DHT22;26535;48.788;9.214;2023-04-04T16:06:13;22.80;44.50
40816;DHT22;26535;48.788;9.214;2023-04-04T16:08:39;23.00;44.40
40816;DHT22;26535;48.788;9.214;2023-04-04T16:11:05;22.70;45.70
40816;DHT22;26535;48.788;9.214;2023-04-04T16:13:31;23.20;44.40
40816;DHT22;26535;48.788;9.214;2023-04-04T16:15:57;22.50;45.00
40816;DHT22;26535;48.788;9.214;2023-04-04T16:18:22;22.70;44.70
40816;DHT22;26535;48.788;9.214;2023-04-04T16:20:48;22.90;44.90
40816;DHT22;26535;48.788;9.214;2023-04-04T16:23:14;22.20;45.00
40816;DHT22;26535;48.788;9.214;2023-04-04T16:25:39;21.90;45.20
40816;DHT22;26535;48.788;9.214;2023-04-04T16:28:05;21.90;45.60
40816;DHT22;26535;48.788;9.214;2023-04-04T16:30:31;21.80;45.40
40816;DHT22;26535;48.788;9.214;2023-04-04T16:32:57;21.60;40.90
40816;DHT22;26535;48.788;9.214;2023-04-04T16:35:23;21.00;41.50
40816;DHT22;26535;48.788;9.214;2023-04-04T16:37:49;20.60;41.60
40816;DHT22;26535;48.788;9.214;2023-04-04T16:40:15;20.20;42.90
40816;DHT22;26535;48.788;9.214;2023-04-04T16:42:41;20.60;41.90
40816;DHT22;26535;48.788;9.214;2023-04-04T16:45:07;19.80;42.30
40816;DHT22;26535;48.788;9.214;2023-04-04T16:47:34;19.50;42.90
40816;DHT22;26535;48.788;9.214;2023-04-04T16:50:04;19.80;42.80
40816;DHT22;26535;48.788;9.214;2023-04-04T16:52:30;19.60;42.30
40816;DHT22;26535;48.788;9.214;2023-04-04T16:54:56;19.30;42.70
40816;DHT22;26535;48.788;9.214;2023-04-04T16:57:22;19.50;42.70
40816;DHT22;26535;48.788;9.214;2023-04-04T16:59:47;19.50;42.30
40816;DHT22;26535;48.788;9.214;2023-04-04T17:02:13;18.80;43.30
40816;DHT22;26535;48.788;9.214;2023-04-04T17:04:39;17.60;44.00
40816;DHT22;26535;48.788;9.214;2023-04-04T17:07:05;15.90;45.80
40816;DHT22;26535;48.788;9.214;2023-04-04T17:09:32;14.70;47.70
40816;DHT22;26535;48.788;9.214;2023-04-04T17:11:58;13.40;49.30
40816;DHT22;26535;48.788;9.214;2023-04-04T17:14:25;12.80;50.80
40816;DHT22;26535;48.788;9.214;2023-04-04T17:16:51;12.20;52.30
40816;DHT22;26535;48.788;9.214;2023-04-04T17:19:17;11.80;53.70
40816;DHT22;26535;48.788;9.214;2023-04-04T17:21:43;11.50;54.10
40816;DHT22;26535;48.788;9.214;2023-04-04T17:24:09;11.20;53.30
40816;DHT22;26535;48.788;9.214;2023-04-04T17:26:35;10.90;54.40
40816;DHT22;26535;48.788;9.214;2023-04-04T17:29:01;10.40;55.80
40816;DHT22;26535;48.788;9.214;2023-04-04T17:31:27;10.10;56.40
40816;DHT22;26535;48.788;9.214;2023-04-04T17:33:52;9.70;56.60
40816;DHT22;26535;48.788;9.214;2023-04-04T17:36:19;9.40;57.30
40816;DHT22;26535;48.788;9.214;2023-04-04T17:38:44;9.10;58.10
40816;DHT22;26535;48.788;9.214;2023-04-04T17:41:12;8.90;59.00
40816;DHT22;26535;48.788;9.214;2023-04-04T17:43:37;8.80;59.60
40816;DHT22;26535;48.788;9.214;2023-04-04T17:46:03;8.60;59.20
40816;DHT22;26535;48.788;9.214;2023-04-04T17:48:34;8.50;59.90
40816;DHT22;26535;48.788;9.214;2023-04-04T17:51:03;8.50;60.10
40816;DHT22;26535;48.788;9.214;2023-04-04T17:53:29;8.20;60.70
40816;DHT22;26535;48.788;9.214;2023-04-04T17:55:57;8.00;61.50
40816;DHT22;26535;48.788;9.214;2023-04-04T17:58:23;7.90;62.10
40816;DHT22;26535;48.788;9.214;2023-04-04T18:00:51;7.80;63.00
40816;DHT22;26535;48.788;9.214;2023-04-04T18:03:20;7.70;63.30
40816;DHT22;26535;48.788;9.214;2023-04-04T18:05:48;7.60;63.60
40816;DHT22;26535;48.788;9.214;2023-04-04T18:08:13;7.50;63.90
40816;DHT22;26535;48.788;9.214;2023-04-04T18:10:39;7.40;64.40
40816;DHT22;26535;48.788;9.214;2023-04-04T18:13:06;7.30;64.90
40816;DHT22;26535;48.788;9.214;2023-04-04T18:15:32;7.30;66.30
40816;DHT22;26535;48.788;9.214;2023-04-04T18:17:58;7.20;65.70
40816;DHT22;26535;48.788;9.214;2023-04-04T18:20:24;7.20;65.50
40816;DHT22;26535;48.788;9.214;2023-04-04T18:22:49;7.10;66.20
40816;DHT22;26535;48.788;9.214;2023-04-04T18:25:17;7.10;66.30
40816;DHT22;26535;48.788;9.214;2023-04-04T18:27:43;7.00;66.20
40816;DHT22;26535;48.788;9.214;2023-04-04T18:30:09;6.90;66.60
40816;DHT22;26535;48.788;9.214;2023-04-04T18:32:35;6.80;66.70
40816;DHT22;26535;48.788;9.214;2023-04-04T18:35:00;6.80;67.90
40816;DHT22;26535;48.788;9.214;2023-04-04T18:37:26;6.70;67.80
40816;DHT22;26535;48.788;9.214;2023-04-04T18:39:52;6.70;67.80
40816;DHT22;26535;48.788;9.214;2023-04-04T18:42:17;6.70;68.50
40816;DHT22;26535;48.788;9.214;2023-04-04T18:44:43;6.60;68.30
40816;DHT22;26535;48.788;9.214;2023-04-04T18:47:09;6.50;68.20
40816;DHT22;26535;48.788;9.214;2023-04-04T18:49:36;6.40;68.20
40816;DHT22;26535;48.788;9.214;2023-04-04T18:52:03;6.30;68.70
40816;DHT22;26535;48.788;9.214;2023-04-04T18:54:30;6.20;69.10
40816;DHT22;26535;48.788;9.214;2023-04-04T18:56:56;6.20;69.40
40816;DHT22;26535;48.788;9.214;2023-04-04T18:59:22;6.10;69.60
40816;DHT22;26535;48.788;9.214;2023-04-04T19:01:49;6.00;70.20
40816;DHT22;26535;48.788;9.214;2023-04-04T19:04:19;5.90;71.10
40816;DHT22;26535;48.788;9.214;2023-04-04T19:06:46;5.80;71.20
40816;DHT22;26535;48.788;9.214;2023-04-04T19:09:14;5.90;71.50
40816;DHT22;26535;48.788;9.214;2023-04-04T19:11:41;5.90;71.20
40816;DHT22;26535;48.788;9.214;2023-04-04T19:14:07;5.90;71.20
40816;DHT22;26535;48.788;9.214;2023-04-04T19:16:33;5.80;71.10
40816;DHT22;26535;48.788;9.214;2023-04-04T19:18:58;5.80;71.60
40816;DHT22;26535;48.788;9.214;2023-04-04T19:21:24;5.70;72.20
40816;DHT22;26535;48.788;9.214;2023-04-04T19:23:50;5.60;71.60
40816;DHT22;26535;48.788;9.214;2023-04-04T19:26:17;5.60;72.20
40816;DHT22;26535;48.788;9.214;2023-04-04T19:28:43;5.60;72.20
40816;DHT22;26535;48.788;9.214;2023-04-04T19:31:19;5.50;72.90
40816;DHT22;26535;48.788;9.214;2023-04-04T19:33:48;5.40;72.60
40816;DHT22;26535;48.788;9.214;2023-04-04T19:36:15;5.40;72.80
40816;DHT22;26535;48.788;9.214;2023-04-04T19:38:41;5.30;73.30
40816;DHT22;26535;48.788;9.214;2023-04-04T19:41:33;5.30;73.90
40816;DHT22;26535;48.788;9.214;2023-04-04T19:43:59;5.20;74.70
40816;DHT22;26535;48.788;9.214;2023-04-04T19:46:27;5.20;75.20
40816;DHT22;26535;48.788;9.214;2023-04-04T19:53:50;5.20;74.30
40816;DHT22;26535;48.788;9.214;2023-04-04T19:56:19;5.20;74.20
40816;DHT22;26535;48.788;9.214;2023-04-04T19:58:46;5.10;74.50
40816;DHT22;26535;48.788;9.214;2023-04-04T20:01:22;5.10;74.60
40816;DHT22;26535;48.788;9.214;2023-04-04T20:03:48;5.00;75.00
40816;DHT22;26535;48.788;9.214;2023-04-04T20:06:28;5.00;74.90
40816;DHT22;26535;48.788;9.214;2023-04-04T20:08:55;5.00;75.50
40816;DHT22;26535;48.788;9.214;2023-04-04T20:11:39;4.90;75.80
40816;DHT22;26535;48.788;9.214;2023-04-04T20:14:07;4.90;75.30
40816;DHT22;26535;48.788;9.214;2023-04-04T20:16:34;4.90;75.40
40816;DHT22;26535;48.788;9.214;2023-04-04T20:19:02;4.80;75.60
40816;DHT22;26535;48.788;9.214;2023-04-04T20:21:30;4.70;76.30
40816;DHT22;26535;48.788;9.214;2023-04-04T20:23:59;4.70;76.10
40816;DHT22;26535;48.788;9.214;2023-04-04T20:29:28;4.70;75.90
40816;DHT22;26535;48.788;9.214;2023-04-04T20:34:28;4.60;77.10
40816;DHT22;26535;48.788;9.214;2023-04-04T20:36:55;4.60;76.90
40816;DHT22;26535;48.788;9.214;2023-04-04T20:44:54;4.20;77.70
40816;DHT22;26535;48.788;9.214;2023-04-04T20:53:01;4.00;78.50
40816;DHT22;26535;48.788;9.214;2023-04-04T20:55:32;4.00;78.70
40816;DHT22;26535;48.788;9.214;2023-04-04T20:58:09;4.00;78.60
40816;DHT22;26535;48.788;9.214;2023-04-04T21:00:42;3.90;79.00
40816;DHT22;26535;48.788;9.214;2023-04-04T21:05:49;3.80;79.60
40816;DHT22;26535;48.788;9.214;2023-04-04T21:10:54;3.70;80.80
40816;DHT22;26535;48.788;9.214;2023-04-04T21:13:41;3.70;81.00
40816;DHT22;26535;48.788;9.214;2023-04-04T21:16:10;3.80;81.10
40816;DHT22;26535;48.788;9.214;2023-04-04T21:18:37;3.70;80.30
40816;DHT22;26535;48.788;9.214;2023-04-04T21:21:08;3.70;80.70
40816;DHT22;26535;48.788;9.214;2023-04-04T21:23:58;3.60;81.70
40816;DHT22;26535;48.788;9.214;2023-04-04T21:26:39;3.50;81.00
40816;DHT22;26535;48.788;9.214;2023-04-04T21:29:23;3.50;82.50
40816;DHT22;26535;48.788;9.214;2023-04-04T21:31:52;3.50;82.00
40816;DHT22;26535;48.788;9.214;2023-04-04T21:34:20;3.50;82.50
40816;DHT22;26535;48.788;9.214;2023-04-04T21:36:47;3.40;82.90
40816;DHT22;26535;48.788;9.214;2023-04-04T21:41:40;3.40;82.40
40816;DHT22;26535;48.788;9.214;2023-04-04T21:44:08;3.40;82.80
40816;DHT22;26535;48.788;9.214;2023-04-04T21:46:35;3.40;81.60